EHWO/WOE METAR and TAF weather

Enter ICAO airport designator
Station Type Date Time Source
EHWO METAR 2022/08/13 12:25 UTC NOAA

EHWO 131225Z AUTO 04006KT 030V160 9999 NCD 32/06 Q1015 BLU


Station Type Date Time Source
EHWO Decoded METAR 2022/08/13 12:25 UTC NOAA

Woensdrecht, Netherlands (EHWO) 51-27N 004-20E 17M
Aug 13, 2022 - 08:25 AM EDT / 2022.08.13 1225 UTC
Wind: from the NE (040 degrees) at 7 MPH (6 KT) (direction variable):0
Visibility: greater than 7 mile(s):0
Temperature: 89 F (32 C)
Dew Point: 42 F (6 C)
Relative Humidity: 19%
Pressure (altimeter): 29.97 in. Hg (1015 hPa)
ob: EHWO 131225Z AUTO 04006KT 030V160 9999 NCD 32/06 Q1015 BLU
cycle: 12

Station Type Date Time Source
EHWO TAF 2022/08/12 09:06 UTC NOAA

TAF EHWO 120844Z 1209/1221 08007KT CAVOK
TEMPO 1210/1216 09012KT

Example: see airport list